Terminal Aerodrome Forecast
Issued by NWS Charleston, SC

Home | Current Version | Previous Version | Text Only | Print | Product List | Glossary On
Versions: 1 2 3 4 5 6 7 8 9 10 11 12 13 14 15 16 17 18 19 20
000
FTUS42 KCHS 301900 AAB
TAFCHS
TAF AMD
KCHS 301952Z 3020/3118 11012G18KT P6SM SCT025 BKN150
     FM310200 04004KT P6SM SCT020 BKN150
     FM311400 10012KT P6SM VCSH SCT020 BKN035=

USA.gov is the U.S. government's official web portal to all federal, state and local government web resources and services.